Time;durP1;ratioP1;P1;durP2;ratioP2;P2;SDS_P1;SDS_P2;PMS_P1;PMS_P2;Temp;Humidity;BMP_temperature;BMP_pressure;BME280_temperature;BME280_humidity;BME280_pressure;Samples;Min_cycle;Max_cycle;Signal;HPM_P1;HPM_P2
2021/10/28 00:14:24;;;;;;;10.53;8.37;;;9.10;83.70;;;;;;5037203;28;20470;-42
2021/10/28 00:16:51;;;;;;;12.80;8.50;;;9.10;83.50;;;;;;5036134;28;20467;-42
2021/10/28 00:19:18;;;;;;;9.53;8.00;;;9.10;83.50;;;;;;5041695;28;20463;-43
2021/10/28 00:21:46;;;;;;;13.23;8.20;;;9.00;83.50;;;;;;5039020;28;20462;-42
2021/10/28 00:24:14;;;;;;;9.93;8.17;;;9.00;83.60;;;;;;5041361;28;20466;-42
2021/10/28 00:26:44;;;;;;;10.90;8.70;;;9.00;83.50;;;;;;5022583;28;21192;-42
2021/10/28 00:29:15;;;;;;;10.50;8.27;;;9.00;83.40;;;;;;5035679;28;20462;-42
2021/10/28 00:31:43;;;;;;;11.27;8.33;;;9.00;83.40;;;;;;5040578;28;20460;-42
2021/10/28 00:34:12;;;;;;;11.93;9.47;;;9.00;83.50;;;;;;5035182;28;20990;-42
2021/10/28 00:36:39;;;;;;;17.47;9.83;;;8.90;83.50;;;;;;5024779;28;20462;-42
2021/10/28 00:39:08;;;;;;;18.50;11.07;;;8.90;83.70;;;;;;5042462;28;20457;-42
2021/10/28 00:41:36;;;;;;;16.13;11.47;;;8.90;83.90;;;;;;5044447;28;20469;-42
2021/10/28 00:44:04;;;;;;;15.13;10.80;;;8.90;83.80;;;;;;5038538;28;20494;-42
2021/10/28 00:46:33;;;;;;;17.77;11.30;;;8.90;84.00;;;;;;5039094;28;20446;-41
2021/10/28 00:49:01;;;;;;;19.00;10.40;;;8.90;84.10;;;;;;5042144;28;20458;-41
2021/10/28 00:51:30;;;;;;;15.97;9.60;;;8.80;84.30;;;;;;5041356;28;20448;-43
2021/10/28 00:53:59;;;;;;;13.87;9.67;;;8.90;84.30;;;;;;5037789;28;20937;-42
2021/10/28 00:56:27;;;;;;;14.40;9.70;;;8.80;84.20;;;;;;5036301;28;20450;-42
2021/10/28 00:58:54;;;;;;;15.93;9.93;;;8.80;84.20;;;;;;5041582;28;20461;-42
2021/10/28 01:01:21;;;;;;;14.83;9.53;;;8.80;84.30;;;;;;5044355;28;20939;-42
2021/10/28 01:03:48;;;;;;;15.00;9.10;;;8.80;84.40;;;;;;5042758;28;20816;-43
2021/10/28 01:06:15;;;;;;;16.10;9.90;;;8.80;84.40;;;;;;5045612;28;21022;-42
2021/10/28 01:08:43;;;;;;;13.00;8.87;;;8.80;84.30;;;;;;5042436;28;21020;-42
2021/10/28 01:11:12;;;;;;;16.20;10.73;;;8.70;84.40;;;;;;5043851;28;20450;-42
2021/10/28 01:13:39;;;;;;;14.50;9.90;;;8.70;84.40;;;;;;5043671;28;20473;-42
2021/10/28 01:16:07;;;;;;;12.80;10.53;;;8.70;84.50;;;;;;5044403;28;20504;-42
2021/10/28 01:18:36;;;;;;;13.73;9.30;;;8.70;84.70;;;;;;5029028;28;20451;-42
2021/10/28 01:21:06;;;;;;;12.27;9.47;;;8.70;84.60;;;;;;5046341;28;20451;-43
2021/10/28 01:23:34;;;;;;;15.07;9.77;;;8.70;84.70;;;;;;5038304;28;20470;-42
2021/10/28 01:26:05;;;;;;;13.80;9.63;;;8.70;84.80;;;;;;5042976;28;20453;-42
2021/10/28 01:28:33;;;;;;;15.23;8.63;;;8.70;84.60;;;;;;5020765;28;20825;-42
2021/10/28 01:31:06;;;;;;;11.47;7.63;;;8.70;84.60;;;;;;5042222;28;20925;-42
2021/10/28 01:33:33;;;;;;;12.87;9.37;;;8.70;84.60;;;;;;5045126;28;20944;-42
2021/10/28 01:36:00;;;;;;;15.30;9.30;;;8.70;84.60;;;;;;5045372;28;20458;-42
2021/10/28 01:38:27;;;;;;;13.47;8.13;;;8.60;84.80;;;;;;5044286;28;20460;-42
2021/10/28 01:41:02;;;;;;;9.70;7.60;;;8.60;84.90;;;;;;5045354;28;20457;-42
2021/10/28 01:43:32;;;;;;;13.33;9.70;;;8.60;85.00;;;;;;5042514;28;20473;-42
2021/10/28 01:45:59;;;;;;;11.03;7.90;;;8.60;85.10;;;;;;5024751;28;20455;-42
2021/10/28 01:48:27;;;;;;;10.70;7.87;;;8.50;85.00;;;;;;5046874;28;20486;-42
2021/10/28 01:50:55;;;;;;;14.17;10.00;;;8.50;85.00;;;;;;5043377;28;20982;-42
2021/10/28 01:53:22;;;;;;;13.20;8.83;;;8.50;85.00;;;;;;5039435;28;20443;-42
2021/10/28 01:55:49;;;;;;;11.23;8.40;;;8.50;84.90;;;;;;5040884;28;20466;-42
2021/10/28 01:58:22;;;;;;;12.00;9.23;;;8.40;85.00;;;;;;5043247;28;20803;-42
2021/10/28 02:00:50;;;;;;;14.90;10.10;;;8.40;85.00;;;;;;5045034;28;20470;-42
2021/10/28 02:03:18;;;;;;;16.70;9.57;;;8.40;85.00;;;;;;5020744;28;20826;-42
2021/10/28 02:05:45;;;;;;;11.33;8.37;;;8.40;85.00;;;;;;5044808;28;20818;-42
2021/10/28 02:08:11;;;;;;;11.90;8.03;;;8.40;85.00;;;;;;5044249;28;20544;-42
2021/10/28 02:10:38;;;;;;;11.10;7.70;;;8.40;84.90;;;;;;5026861;28;20537;-42
2021/10/28 02:13:06;;;;;;;12.53;9.87;;;8.40;84.80;;;;;;5042763;28;20600;-42
2021/10/28 02:15:33;;;;;;;13.10;7.97;;;8.30;84.60;;;;;;5041014;28;20998;-42
2021/10/28 02:17:59;;;;;;;10.70;8.17;;;8.30;84.60;;;;;;5042330;28;20460;-42
2021/10/28 02:20:26;;;;;;;11.30;7.50;;;8.30;84.80;;;;;;5045325;28;20639;-41
2021/10/28 02:22:53;;;;;;;9.53;7.87;;;8.20;84.80;;;;;;5041070;28;20462;-41
2021/10/28 02:25:20;;;;;;;13.37;8.93;;;8.20;84.90;;;;;;5044794;28;20668;-42
2021/10/28 02:27:48;;;;;;;12.43;9.60;;;8.20;84.70;;;;;;5044368;28;20501;-41
2021/10/28 02:30:15;;;;;;;11.57;9.10;;;8.20;84.80;;;;;;5029095;28;20462;-42
2021/10/28 02:32:43;;;;;;;10.30;8.13;;;8.20;84.90;;;;;;5039932;28;20459;-42
2021/10/28 02:35:10;;;;;;;12.93;8.23;;;8.10;85.00;;;;;;5044401;28;20470;-42
2021/10/28 02:37:37;;;;;;;10.53;7.70;;;8.10;85.20;;;;;;5020904;28;20462;-42
2021/10/28 02:40:05;;;;;;;10.70;7.77;;;8.10;85.20;;;;;;5040855;28;20467;-42
2021/10/28 02:42:32;;;;;;;11.37;8.23;;;8.10;85.20;;;;;;5022565;28;20462;-42
2021/10/28 02:44:59;;;;;;;9.30;7.93;;;8.10;85.00;;;;;;5043166;28;21057;-42
2021/10/28 02:47:26;;;;;;;9.47;7.80;;;8.10;85.20;;;;;;5042144;28;20513;-41
2021/10/28 02:49:53;;;;;;;12.73;7.87;;;8.10;84.90;;;;;;5045338;28;20454;-41
2021/10/28 02:52:20;;;;;;;11.13;8.33;;;8.10;84.90;;;;;;5043470;28;21255;-41
2021/10/28 02:54:47;;;;;;;12.70;9.03;;;8.10;84.90;;;;;;5044347;28;20462;-41
2021/10/28 02:57:13;;;;;;;16.17;8.30;;;8.10;85.00;;;;;;5025158;28;20465;-42
2021/10/28 02:59:41;;;;;;;17.50;8.63;;;8.00;85.20;;;;;;5043533;28;20477;-42
2021/10/28 03:02:08;;;;;;;12.27;8.43;;;8.10;85.20;;;;;;5041903;28;20471;-42
2021/10/28 03:04:35;;;;;;;12.87;8.80;;;8.10;85.00;;;;;;5023564;28;20855;-42
2021/10/28 03:07:02;;;;;;;14.93;8.40;;;8.10;84.90;;;;;;5030638;28;20994;-42
2021/10/28 03:09:29;;;;;;;14.77;8.60;;;8.10;84.80;;;;;;5022133;28;20469;-42
2021/10/28 03:11:58;;;;;;;11.80;8.90;;;8.10;84.80;;;;;;5039769;28;20521;-42
2021/10/28 03:14:42;;;;;;;10.57;8.60;;;8.10;84.80;;;;;;5043391;28;20473;-42
2021/10/28 03:25:43;;;;;;;10.80;8.87;;;8.00;85.20;;;;;;5042442;28;20462;-41
2021/10/28 03:28:19;;;;;;;11.10;8.70;;;8.00;85.20;;;;;;5039130;28;20995;-42
2021/10/28 03:30:48;;;;;;;13.87;9.10;;;7.90;85.40;;;;;;5023578;28;20503;-42
2021/10/28 03:33:21;;;;;;;11.63;8.93;;;8.00;85.40;;;;;;5024175;28;20458;-42
2021/10/28 03:35:48;;;;;;;11.23;7.93;;;8.00;85.00;;;;;;5040856;28;20470;-42
2021/10/28 03:38:25;;;;;;;10.70;7.53;;;8.00;85.00;;;;;;5037476;28;20456;-42
2021/10/28 03:41:29;;;;;;;12.07;8.40;;;7.90;85.10;;;;;;5025013;28;20667;-42
2021/10/28 03:44:08;;;;;;;10.73;8.00;;;7.90;85.10;;;;;;5042118;28;20530;-42
2021/10/28 03:52:32;;;;;;;10.90;7.67;;;7.80;84.70;;;;;;5041931;28;20447;-42
2021/10/28 03:56:11;;;;;;;7.60;6.73;;;7.80;84.70;;;;;;5036881;28;20455;-42
2021/10/28 04:03:51;;;;;;;11.83;7.67;;;7.70;84.40;;;;;;5038422;28;20563;-42
2021/10/28 04:30:16;;;;;;;12.53;8.13;;;7.50;84.40;;;;;;5038159;28;20489;-42
2021/10/28 04:32:43;;;;;;;8.37;7.03;;;7.50;84.40;;;;;;5024256;28;20490;-42
2021/10/28 04:35:15;;;;;;;9.23;6.90;;;7.50;84.40;;;;;;5039565;28;20545;-42
2021/10/28 04:37:44;;;;;;;9.90;7.43;;;7.50;84.60;;;;;;5042666;28;20478;-42
2021/10/28 04:40:12;;;;;;;10.67;8.03;;;7.50;84.50;;;;;;5025185;28;20464;-42
2021/10/28 04:42:39;;;;;;;16.43;8.87;;;7.50;84.50;;;;;;4991224;28;20534;-42
2021/10/28 04:45:07;;;;;;;12.70;8.20;;;7.40;84.40;;;;;;5041142;28;20458;-42
2021/10/28 04:47:34;;;;;;;10.50;7.77;;;7.40;84.50;;;;;;5039943;28;20452;-42
2021/10/28 04:50:00;;;;;;;9.53;7.87;;;7.40;84.50;;;;;;5040626;28;20885;-42
2021/10/28 04:52:27;;;;;;;11.37;9.33;;;7.40;84.60;;;;;;5037702;28;20453;-42
2021/10/28 04:54:54;;;;;;;14.73;8.50;;;7.30;84.60;;;;;;5039581;28;20461;-42
2021/10/28 04:57:20;;;;;;;12.43;7.30;;;7.30;84.60;;;;;;5042074;28;20955;-42
2021/10/28 04:59:48;;;;;;;9.97;8.30;;;7.30;84.60;;;;;;5040231;28;20474;-42
2021/10/28 05:02:15;;;;;;;11.07;7.47;;;7.30;84.70;;;;;;5037216;28;20451;-42
2021/10/28 05:04:42;;;;;;;9.87;7.97;;;7.20;84.50;;;;;;5041476;28;20520;-42
2021/10/28 05:07:09;;;;;;;13.47;8.10;;;7.20;84.50;;;;;;5040554;28;20465;-42
2021/10/28 05:09:40;;;;;;;10.80;8.30;;;7.20;84.50;;;;;;5040045;28;20597;-42
2021/10/28 05:12:07;;;;;;;9.70;7.23;;;7.20;84.50;;;;;;5041515;28;20482;-41
2021/10/28 05:14:34;;;;;;;11.57;8.00;;;7.20;84.40;;;;;;5038701;28;20939;-41
2021/10/28 05:17:00;;;;;;;11.30;7.60;;;7.20;84.40;;;;;;5017451;28;20456;-42
2021/10/28 05:19:34;;;;;;;11.70;8.23;;;7.10;84.30;;;;;;5037846;28;21103;-42
2021/10/28 05:22:00;;;;;;;13.67;7.73;;;7.10;84.40;;;;;;5039178;28;20464;-42
2021/10/28 05:24:27;;;;;;;15.27;7.93;;;7.10;84.30;;;;;;5022788;28;20458;-42
2021/10/28 05:26:54;;;;;;;9.80;8.33;;;7.10;84.30;;;;;;5025198;28;20453;-42
2021/10/28 05:29:21;;;;;;;9.83;7.77;;;7.10;84.30;;;;;;5039402;28;20487;-42
2021/10/28 05:31:48;;;;;;;10.07;7.47;;;7.10;84.30;;;;;;5044918;28;21062;-42
2021/10/28 05:34:15;;;;;;;12.53;9.13;;;7.10;84.30;;;;;;5043788;28;20459;-42
2021/10/28 05:36:42;;;;;;;9.67;7.60;;;7.10;84.30;;;;;;5045548;28;20962;-42
2021/10/28 05:39:08;;;;;;;11.60;8.20;;;7.10;84.30;;;;;;5037909;28;20474;-42
2021/10/28 05:41:35;;;;;;;13.67;9.30;;;7.10;84.30;;;;;;5036461;28;21171;-42
2021/10/28 05:44:02;;;;;;;11.60;7.93;;;7.10;84.20;;;;;;5040197;28;20455;-42
2021/10/28 05:46:29;;;;;;;10.93;8.27;;;7.10;84.20;;;;;;5030451;28;20989;-42
2021/10/28 05:48:56;;;;;;;10.27;8.63;;;7.10;84.30;;;;;;5039199;28;20860;-42
2021/10/28 05:51:25;;;;;;;12.17;8.73;;;7.10;84.30;;;;;;5028285;28;20456;-42
2021/10/28 05:53:52;;;;;;;13.00;7.80;;;7.00;84.30;;;;;;5041526;28;20451;-42
2021/10/28 05:56:19;;;;;;;10.17;8.70;;;7.00;84.30;;;;;;5042535;28;20458;-41
2021/10/28 05:58:45;;;;;;;11.07;7.73;;;7.00;84.40;;;;;;5040615;28;21053;-41
2021/10/28 06:01:12;;;;;;;11.63;7.67;;;7.00;84.40;;;;;;5045156;28;20468;-42
2021/10/28 06:03:39;;;;;;;9.90;6.77;;;7.00;84.40;;;;;;5039031;28;20491;-42
2021/10/28 06:06:06;;;;;;;10.57;8.40;;;7.00;84.40;;;;;;5023396;28;20462;-42
2021/10/28 06:08:34;;;;;;;9.83;7.40;;;7.00;84.20;;;;;;5040634;28;20490;-42
2021/10/28 06:11:01;;;;;;;9.27;7.43;;;7.00;84.50;;;;;;5042107;28;20539;-42
2021/10/28 06:13:30;;;;;;;9.17;6.73;;;7.00;84.40;;;;;;5037571;28;20458;-42
2021/10/28 06:15:58;;;;;;;11.37;7.17;;;7.00;84.50;;;;;;5036995;28;20462;-43
2021/10/28 06:20:54;;;;;;;12.50;8.27;;;6.90;84.80;;;;;;5043823;28;20446;-43
2021/10/28 06:23:22;;;;;;;11.70;7.93;;;6.90;84.90;;;;;;5022769;28;20463;-43
2021/10/28 06:25:49;;;;;;;9.67;7.47;;;6.90;85.00;;;;;;5042461;28;20467;-43
2021/10/28 06:28:15;;;;;;;12.67;8.70;;;6.90;85.10;;;;;;5045148;28;21017;-43
2021/10/28 06:30:42;;;;;;;8.80;6.60;;;6.90;85.30;;;;;;5039509;28;20455;-43
2021/10/28 06:33:12;;;;;;;12.07;8.53;;;7.00;85.40;;;;;;5041843;28;20715;-43
2021/10/28 06:35:42;;;;;;;12.73;8.27;;;7.00;85.40;;;;;;5040589;28;20464;-43
2021/10/28 06:38:10;;;;;;;10.13;7.70;;;7.00;85.50;;;;;;5043013;28;20578;-43
2021/10/28 06:40:37;;;;;;;9.87;7.37;;;7.00;85.70;;;;;;5042885;28;20466;-43
2021/10/28 06:43:05;;;;;;;10.20;7.23;;;7.10;85.60;;;;;;5041861;28;21198;-42
2021/10/28 06:45:31;;;;;;;8.90;6.60;;;7.10;85.80;;;;;;5039760;28;20459;-42
2021/10/28 06:47:58;;;;;;;7.63;6.70;;;7.10;85.70;;;;;;5042965;28;20474;-42
2021/10/28 06:51:07;;;;;;;10.17;7.60;;;7.10;85.80;;;;;;5044268;28;20460;-43
2021/10/28 07:03:29;;;;;;;9.93;7.13;;;7.20;85.90;;;;;;5042482;28;20489;-43
2021/10/28 07:06:03;;;;;;;9.10;7.50;;;7.20;85.80;;;;;;5038656;28;20458;-43
2021/10/28 07:08:30;;;;;;;8.77;6.90;;;7.20;86.00;;;;;;5038050;28;21658;-43
2021/10/28 07:10:59;;;;;;;10.07;7.67;;;7.20;85.90;;;;;;5043263;28;21075;-43
2021/10/28 07:13:31;;;;;;;13.03;9.60;;;7.20;86.00;;;;;;5046219;28;20835;-43
2021/10/28 07:16:07;;;;;;;14.07;9.20;;;7.20;86.20;;;;;;5043681;28;20778;-43
2021/10/28 07:21:31;;;;;;;16.37;10.33;;;7.30;86.40;;;;;;5042409;28;20467;-43
2021/10/28 08:00:11;;;;;;;26.67;17.37;;;8.00;87.60;;;;;;5036888;28;20549;-43
2021/10/28 08:19:08;;;;;;;29.07;18.50;;;8.30;89.00;;;;;;5038108;28;20458;-42
2021/10/28 08:21:41;;;;;;;32.47;18.60;;;8.30;89.00;;;;;;5034654;28;20463;-43
2021/10/28 08:29:39;;;;;;;29.43;18.43;;;8.50;89.10;;;;;;5035458;28;21264;-43
2021/10/28 08:32:07;;;;;;;30.23;19.17;;;8.50;89.10;;;;;;5038818;28;20983;-43
2021/10/28 08:34:36;;;;;;;28.20;19.70;;;8.50;89.20;;;;;;5039101;28;20451;-43
2021/10/28 08:37:13;;;;;;;37.33;21.40;;;8.60;89.20;;;;;;5024828;28;20451;-43
2021/10/28 08:39:51;;;;;;;35.40;21.30;;;8.60;89.30;;;;;;5039593;28;20848;-43
2021/10/28 08:42:21;;;;;;;34.53;21.67;;;8.60;89.30;;;;;;5035978;28;20461;-43
2021/10/28 08:44:54;;;;;;;35.50;21.73;;;8.70;89.30;;;;;;5041874;28;20895;-43
2021/10/28 08:47:23;;;;;;;35.70;22.60;;;8.70;89.00;;;;;;5040678;28;20947;-43
2021/10/28 08:50:00;;;;;;;42.30;22.60;;;8.70;89.30;;;;;;5037759;28;20488;-43
2021/10/28 09:25:47;;;;;;;44.40;23.17;;;9.00;89.20;;;;;;5042120;28;20469;-43
2021/10/28 09:28:34;;;;;;;40.33;23.40;;;8.90;89.30;;;;;;5025555;28;20706;-43
2021/10/28 09:31:14;;;;;;;46.03;24.83;;;9.00;89.60;;;;;;5040602;28;20817;-43
2021/10/28 09:51:12;;;;;;;40.07;23.97;;;9.20;89.20;;;;;;5039669;28;20834;-43
2021/10/28 09:59:44;;;;;;;45.20;26.27;;;9.30;88.60;;;;;;5040142;28;20459;-43
2021/10/28 10:02:35;;;;;;;48.80;24.60;;;9.30;88.80;;;;;;5040988;28;20842;-43
2021/10/28 10:05:14;;;;;;;51.77;26.00;;;9.30;88.90;;;;;;5020836;28;20467;-43
2021/10/28 10:07:46;;;;;;;44.23;26.60;;;9.20;89.50;;;;;;5038918;28;20455;-43
2021/10/28 10:10:18;;;;;;;49.30;26.10;;;9.30;89.50;;;;;;5041579;28;20486;-43
2021/10/28 10:12:46;;;;;;;43.63;25.10;;;9.20;89.50;;;;;;5041160;28;20517;-43
2021/10/28 10:15:13;;;;;;;50.60;26.73;;;9.20;89.60;;;;;;5040732;28;20471;-43
2021/10/28 10:17:59;;;;;;;37.60;23.43;;;9.20;89.70;;;;;;5043651;28;20443;-43
2021/10/28 10:20:33;;;;;;;48.43;26.53;;;9.20;89.50;;;;;;5035880;28;20454;-43
2021/10/28 10:23:29;;;;;;;42.37;25.40;;;9.10;89.60;;;;;;5022615;28;20468;-43
2021/10/28 12:01:44;;;;;;;48.77;24.50;;;9.30;88.40;;;;;;5031675;28;20977;-43
2021/10/28 12:14:06;;;;;;;42.93;23.00;;;9.30;88.70;;;;;;5036627;28;20450;-43
2021/10/28 12:44:14;;;;;;;40.67;24.20;;;9.60;88.00;;;;;;5036781;28;20600;-43
2021/10/28 12:49:48;;;;;;;39.80;22.30;;;9.50;88.10;;;;;;5038006;28;21030;-43
2021/10/28 14:34:13;;;;;;;56.17;29.67;;;9.80;88.60;;;;;;5035701;28;20485;-43
2021/10/28 15:28:13;;;;;;;65.03;30.03;;;9.90;88.80;;;;;;5039842;28;20879;-42
2021/10/28 15:31:07;;;;;;;52.53;26.23;;;9.90;88.90;;;;;;5035719;28;20475;-42
2021/10/28 15:36:39;;;;;;;56.20;30.23;;;9.90;88.60;;;;;;5038541;28;20465;-42
2021/10/28 16:22:17;;;;;;;64.60;31.73;;;10.00;88.70;;;;;;5036540;28;20454;-43
2021/10/28 16:24:44;;;;;;;66.83;31.17;;;10.00;88.60;;;;;;5037947;28;20475;-43
2021/10/28 16:27:11;;;;;;;67.07;31.57;;;10.00;88.60;;;;;;5036899;28;20835;-43
2021/10/28 16:29:38;;;;;;;62.73;31.77;;;10.00;88.60;;;;;;5039610;28;20795;-43
2021/10/28 16:32:05;;;;;;;68.40;29.87;;;10.00;88.40;;;;;;5034476;28;20494;-43
2021/10/28 16:34:32;;;;;;;70.20;32.30;;;10.00;88.60;;;;;;5035719;28;20474;-43
2021/10/28 16:36:59;;;;;;;65.83;29.90;;;9.90;88.80;;;;;;5037949;28;20454;-43
2021/10/28 16:39:31;;;;;;;64.47;29.50;;;9.90;88.90;;;;;;5036045;28;20460;-43
2021/10/28 16:41:58;;;;;;;67.80;30.73;;;9.90;89.00;;;;;;5035672;28;20460;-43
2021/10/28 16:44:26;;;;;;;70.37;30.10;;;9.90;89.20;;;;;;5033817;28;20482;-43
2021/10/28 16:46:53;;;;;;;64.70;28.37;;;9.90;89.30;;;;;;5035955;28;20473;-43
2021/10/28 16:49:21;;;;;;;63.67;30.40;;;9.90;89.10;;;;;;5039983;28;20553;-43
2021/10/28 16:51:47;;;;;;;68.13;31.53;;;10.00;89.10;;;;;;5035546;28;20494;-43
2021/10/28 16:54:17;;;;;;;63.13;30.40;;;10.00;89.00;;;;;;5036248;28;20484;-43
2021/10/28 16:56:48;;;;;;;64.00;29.80;;;9.90;89.10;;;;;;5035011;28;20457;-43
2021/10/28 16:59:14;;;;;;;77.17;35.27;;;9.90;89.10;;;;;;5037730;28;20459;-43
2021/10/28 17:01:42;;;;;;;74.97;34.10;;;9.90;89.00;;;;;;5036927;28;20542;-43
2021/10/28 17:04:09;;;;;;;71.90;34.93;;;9.90;89.20;;;;;;5039885;28;20557;-43
2021/10/28 17:06:36;;;;;;;71.67;37.80;;;9.90;89.40;;;;;;5037074;28;20993;-43
2021/10/28 17:09:06;;;;;;;67.93;36.50;;;9.90;89.40;;;;;;5039239;28;20538;-44
2021/10/28 17:11:35;;;;;;;69.57;35.73;;;9.90;89.50;;;;;;5016240;28;20519;-44
2021/10/28 17:14:06;;;;;;;74.67;35.10;;;9.90;89.50;;;;;;5037556;28;20460;-44
2021/10/28 17:16:34;;;;;;;81.90;37.37;;;9.90;89.60;;;;;;5013911;28;20467;-44
2021/10/28 17:19:01;;;;;;;71.57;35.63;;;9.90;89.60;;;;;;5020373;28;20487;-43
2021/10/28 17:21:28;;;;;;;72.03;35.40;;;10.00;89.50;;;;;;5039978;28;20467;-43
2021/10/28 17:24:03;;;;;;;69.57;31.90;;;9.90;89.50;;;;;;5036080;28;20462;-43
2021/10/28 17:26:33;;;;;;;62.00;30.30;;;9.90;89.50;;;;;;5038636;28;20983;-44
2021/10/28 17:29:02;;;;;;;62.20;31.60;;;9.90;89.60;;;;;;5015764;28;20475;-44
2021/10/28 17:31:32;;;;;;;57.60;29.47;;;9.90;89.60;;;;;;5035066;28;21080;-44
2021/10/28 17:34:01;;;;;;;56.33;29.57;;;9.90;89.60;;;;;;5038463;28;21219;-44
2021/10/28 17:36:27;;;;;;;63.37;30.63;;;10.00;89.50;;;;;;5039157;28;20913;-43
2021/10/28 17:38:55;;;;;;;58.40;28.20;;;10.00;89.50;;;;;;5038524;28;20450;-43
2021/10/28 17:41:22;;;;;;;59.07;29.83;;;10.00;89.50;;;;;;5024077;28;20796;-43
2021/10/28 17:43:55;;;;;;;57.13;29.43;;;10.00;89.50;;;;;;5038442;28;20479;-44
2021/10/28 17:46:26;;;;;;;60.70;31.87;;;10.00;89.50;;;;;;5023003;28;20460;-43
2021/10/28 17:48:54;;;;;;;53.33;27.97;;;10.00;89.40;;;;;;5041429;28;20457;-43
2021/10/28 17:51:22;;;;;;;59.33;30.07;;;10.00;89.40;;;;;;5022559;28;20478;-43
2021/10/28 17:53:49;;;;;;;53.57;30.30;;;10.00;89.30;;;;;;5041746;28;20824;-43
2021/10/28 17:56:17;;;;;;;61.90;32.40;;;10.00;89.30;;;;;;5041693;28;21074;-43
2021/10/28 17:58:45;;;;;;;65.27;32.57;;;10.00;89.30;;;;;;5038692;28;20451;-43
2021/10/28 18:01:14;;;;;;;58.63;29.67;;;10.00;89.20;;;;;;5042444;28;20937;-43
2021/10/28 18:03:41;;;;;;;74.80;36.80;;;10.00;89.30;;;;;;5040639;28;21091;-44
2021/10/28 18:06:08;;;;;;;62.87;34.73;;;10.00;89.30;;;;;;5037001;28;20462;-43
2021/10/28 18:08:35;;;;;;;80.83;38.57;;;10.00;89.20;;;;;;5038119;28;20453;-43
2021/10/28 18:11:02;;;;;;;70.03;31.27;;;10.00;89.30;;;;;;5036710;28;20455;-43
2021/10/28 18:13:29;;;;;;;65.87;30.53;;;10.10;89.20;;;;;;5036431;28;20465;-43
2021/10/28 18:15:56;;;;;;;57.60;28.47;;;10.10;89.10;;;;;;5040255;28;20447;-43
2021/10/28 18:18:22;;;;;;;70.00;31.47;;;10.10;89.10;;;;;;5037346;28;20470;-44
2021/10/28 18:21:01;;;;;;;91.13;42.53;;;10.10;89.10;;;;;;5040808;28;20469;-43
2021/10/28 18:23:34;;;;;;;111.17;51.73;;;10.00;89.10;;;;;;5019960;28;20514;-43
2021/10/28 18:26:01;;;;;;;107.67;46.67;;;10.00;89.10;;;;;;5042819;28;20872;-43
2021/10/28 18:28:28;;;;;;;85.93;36.87;;;10.10;89.10;;;;;;5021950;28;20469;-43
2021/10/28 18:30:55;;;;;;;64.67;32.10;;;10.10;88.80;;;;;;5042497;28;20451;-43
2021/10/28 18:33:22;;;;;;;66.60;34.63;;;10.10;88.90;;;;;;5023478;28;20462;-44
2021/10/28 18:35:51;;;;;;;67.43;33.23;;;10.10;88.90;;;;;;5038061;28;20470;-44
2021/10/28 18:38:18;;;;;;;82.33;33.60;;;10.10;89.10;;;;;;5039936;28;20546;-44
2021/10/28 18:40:45;;;;;;;77.10;36.97;;;10.10;88.80;;;;;;5039184;28;20896;-44
2021/10/28 18:43:16;;;;;;;80.30;35.73;;;10.10;88.90;;;;;;5024859;28;20446;-44
2021/10/28 18:45:43;;;;;;;62.80;31.77;;;10.10;88.90;;;;;;5027462;28;20461;-44
2021/10/28 18:48:10;;;;;;;68.10;32.33;;;10.10;88.90;;;;;;5024036;28;20526;-44
2021/10/28 18:50:37;;;;;;;74.00;32.80;;;10.20;88.60;;;;;;5041470;28;20534;-44
2021/10/28 18:53:05;;;;;;;62.23;32.10;;;10.20;88.50;;;;;;5039364;28;20483;-44
2021/10/28 18:55:31;;;;;;;93.17;37.93;;;10.20;88.70;;;;;;5024806;28;20454;-44
2021/10/28 18:57:58;;;;;;;73.83;34.37;;;10.10;88.80;;;;;;5038293;28;20462;-44
2021/10/28 19:00:25;;;;;;;67.60;32.70;;;10.20;88.90;;;;;;5036479;28;20959;-43
2021/10/28 19:02:52;;;;;;;67.43;30.57;;;10.20;89.10;;;;;;5039317;28;20489;-43
2021/10/28 19:05:21;;;;;;;77.07;32.67;;;10.20;88.80;;;;;;5037456;28;20914;-43
2021/10/28 19:07:48;;;;;;;74.53;34.50;;;10.20;88.80;;;;;;5009724;28;20476;-44
2021/10/28 19:10:15;;;;;;;91.30;35.20;;;10.20;88.80;;;;;;5040238;28;20476;-44
2021/10/28 19:12:43;;;;;;;76.90;34.63;;;10.20;88.90;;;;;;5041481;28;20486;-44
2021/10/28 19:15:10;;;;;;;79.47;35.50;;;10.20;89.10;;;;;;5040682;28;20898;-44
2021/10/28 19:17:39;;;;;;;82.63;35.80;;;10.20;89.20;;;;;;5040054;28;20464;-44
2021/10/28 19:20:07;;;;;;;69.73;33.30;;;10.20;89.20;;;;;;5037025;28;20453;-44
2021/10/28 19:22:34;;;;;;;83.77;34.70;;;10.20;89.20;;;;;;5038205;28;20919;-44
2021/10/28 19:25:06;;;;;;;82.60;34.07;;;10.20;89.10;;;;;;5041877;28;20464;-44
2021/10/28 19:27:35;;;;;;;91.40;37.57;;;10.20;89.20;;;;;;5041342;28;20509;-44
2021/10/28 19:30:13;;;;;;;82.80;34.50;;;10.20;89.00;;;;;;5039440;28;20825;-43
2021/10/28 19:32:44;;;;;;;81.77;35.50;;;10.20;89.20;;;;;;5039817;28;20991;-43
2021/10/28 19:35:10;;;;;;;83.73;35.33;;;10.20;89.20;;;;;;5038703;28;20881;-43
2021/10/28 19:37:46;;;;;;;76.23;35.90;;;10.20;89.20;;;;;;5036949;28;20949;-44
2021/10/28 19:41:02;;;;;;;82.53;36.73;;;10.20;89.30;;;;;;5032835;28;20458;-44
2021/10/28 19:48:16;;;;;;;64.40;32.43;;;10.20;89.30;;;;;;5044611;28;20516;-44
2021/10/28 19:50:48;;;;;;;73.47;35.00;;;10.20;89.10;;;;;;5041270;28;20463;-44
2021/10/28 19:53:15;;;;;;;76.03;36.87;;;10.20;89.30;;;;;;5043573;28;20846;-44
2021/10/28 19:55:43;;;;;;;74.07;34.53;;;10.20;89.50;;;;;;5041863;28;20555;-44
2021/10/28 19:58:15;;;;;;;72.40;33.00;;;10.20;89.70;;;;;;5039846;28;20481;-44
2021/10/28 20:00:52;;;;;;;83.63;36.87;;;10.20;89.60;;;;;;5039900;28;20828;-44
2021/10/28 20:03:37;;;;;;;73.10;35.50;;;10.20;89.50;;;;;;5039988;28;20466;-44
2021/10/28 20:22:25;;;;;;;60.37;33.97;;;10.20;89.40;;;;;;5035721;28;21031;-44
2021/10/28 20:24:52;;;;;;;83.00;32.97;;;10.10;89.60;;;;;;5025231;28;20454;-43
2021/10/28 20:27:19;;;;;;;73.13;33.20;;;10.10;89.80;;;;;;5041565;28;20451;-43
2021/10/28 20:29:45;;;;;;;62.97;30.53;;;10.20;89.70;;;;;;5037494;28;20466;-43
2021/10/28 20:32:12;;;;;;;66.93;32.70;;;10.20;89.60;;;;;;5038890;28;20494;-43
2021/10/28 20:37:26;;;;;;;62.43;29.17;;;10.20;89.50;;;;;;4992692;28;20452;-43
2021/10/28 20:39:53;;;;;;;67.80;31.97;;;10.20;89.60;;;;;;5037683;28;20457;-43
2021/10/28 20:42:21;;;;;;;68.73;30.50;;;10.20;89.80;;;;;;5038326;28;20816;-43
2021/10/28 20:44:50;;;;;;;78.13;33.77;;;10.20;89.80;;;;;;5041279;28;21015;-43
2021/10/28 20:47:17;;;;;;;69.53;35.13;;;10.20;89.80;;;;;;5040094;28;20463;-43
2021/10/28 20:49:44;;;;;;;71.37;34.07;;;10.20;89.60;;;;;;5040957;28;20465;-43
2021/10/28 20:52:13;;;;;;;80.33;36.10;;;10.20;89.60;;;;;;5035816;28;20716;-43
2021/10/28 20:54:39;;;;;;;72.27;33.53;;;10.20;89.70;;;;;;5041153;28;20455;-43
2021/10/28 20:57:06;;;;;;;67.90;32.53;;;10.20;89.70;;;;;;5024008;28;20447;-43
2021/10/28 20:59:33;;;;;;;74.30;33.00;;;10.20;89.70;;;;;;5045336;28;20450;-43
2021/10/28 21:02:00;;;;;;;82.13;36.40;;;10.20;89.80;;;;;;5037949;28;20566;-43
2021/10/28 21:04:27;;;;;;;76.13;33.10;;;10.30;89.50;;;;;;5038421;28;20575;-43
2021/10/28 21:06:54;;;;;;;82.37;35.43;;;10.20;89.40;;;;;;5043142;28;20449;-43
2021/10/28 21:09:20;;;;;;;85.20;36.63;;;10.20;89.50;;;;;;5041994;28;20461;-43
2021/10/28 21:11:48;;;;;;;75.13;33.20;;;10.20;89.70;;;;;;5019699;28;20529;-43
2021/10/28 21:14:16;;;;;;;74.77;33.23;;;10.20;89.70;;;;;;5040816;28;20456;-43
2021/10/28 21:16:43;;;;;;;73.57;34.43;;;10.20;89.80;;;;;;5047348;28;20528;-43
2021/10/28 21:19:10;;;;;;;72.13;36.07;;;10.20;89.70;;;;;;5041949;28;20815;-43
2021/10/28 21:21:38;;;;;;;69.73;33.83;;;10.20;89.70;;;;;;5043058;28;20448;-43
2021/10/28 21:24:08;;;;;;;65.53;34.00;;;10.20;89.70;;;;;;5030923;28;20455;-43
2021/10/28 21:26:35;;;;;;;65.30;32.17;;;10.20;89.70;;;;;;5028693;28;20450;-43
2021/10/28 21:29:04;;;;;;;70.30;33.23;;;10.30;89.50;;;;;;5047058;28;20443;-43
2021/10/28 21:31:31;;;;;;;66.40;33.20;;;10.30;89.30;;;;;;5026986;28;21858;-43
2021/10/28 21:33:58;;;;;;;62.53;33.07;;;10.30;89.10;;;;;;5040598;28;20578;-43
2021/10/28 21:36:25;;;;;;;54.73;31.20;;;10.30;89.10;;;;;;5044572;28;20450;-43
2021/10/28 21:38:52;;;;;;;63.33;31.83;;;10.30;89.10;;;;;;5045806;28;20561;-44
2021/10/28 21:41:19;;;;;;;56.13;30.50;;;10.30;89.10;;;;;;5047753;28;20945;-43
2021/10/28 21:43:46;;;;;;;60.27;30.20;;;10.30;89.20;;;;;;5045254;28;20978;-44
2021/10/28 21:46:13;;;;;;;51.93;32.27;;;10.30;89.30;;;;;;5026516;28;20465;-43
2021/10/28 21:48:39;;;;;;;66.57;32.73;;;10.30;89.30;;;;;;5044561;28;20455;-43
2021/10/28 21:51:07;;;;;;;63.10;32.27;;;10.30;89.30;;;;;;5046468;28;20831;-43
2021/10/28 21:53:38;;;;;;;72.23;32.03;;;10.30;89.40;;;;;;5048148;28;20478;-43
2021/10/28 22:06:50;;;;;;;60.87;32.63;;;10.30;89.20;;;;;;5046407;28;20461;-43